sensor_id;sensor_type;location;lat;lon;timestamp;P1;durP1;ratioP1;P2;durP2;ratioP2
71383;SDS011;67558;52.166;5.004;2023-04-28T00:02:05;11.68;;;10.98;;
71383;SDS011;67558;52.166;5.004;2023-04-28T00:04:32;11.10;;;10.43;;
71383;SDS011;67558;52.166;5.004;2023-04-28T00:06:59;12.75;;;11.98;;
71383;SDS011;67558;52.166;5.004;2023-04-28T00:09:24;12.05;;;11.15;;
71383;SDS011;67558;52.166;5.004;2023-04-28T00:11:50;12.25;;;11.50;;
71383;SDS011;67558;52.166;5.004;2023-04-28T00:14:16;11.30;;;10.50;;
71383;SDS011;67558;52.166;5.004;2023-04-28T00:16:42;11.82;;;10.93;;
71383;SDS011;67558;52.166;5.004;2023-04-28T00:19:08;12.02;;;11.20;;
71383;SDS011;67558;52.166;5.004;2023-04-28T00:21:35;13.68;;;12.73;;
71383;SDS011;67558;52.166;5.004;2023-04-28T00:24:01;13.18;;;12.27;;
71383;SDS011;67558;52.166;5.004;2023-04-28T00:26:27;7.10;;;6.50;;
71383;SDS011;67558;52.166;5.004;2023-04-28T00:28:54;10.45;;;9.88;;
71383;SDS011;67558;52.166;5.004;2023-04-28T00:31:20;11.95;;;11.15;;
71383;SDS011;67558;52.166;5.004;2023-04-28T00:33:47;12.27;;;11.23;;
71383;SDS011;67558;52.166;5.004;2023-04-28T00:36:13;11.60;;;10.80;;
71383;SDS011;67558;52.166;5.004;2023-04-28T00:38:39;12.98;;;12.07;;
71383;SDS011;67558;52.166;5.004;2023-04-28T00:41:04;13.50;;;12.70;;
71383;SDS011;67558;52.166;5.004;2023-04-28T00:43:30;12.15;;;11.43;;
71383;SDS011;67558;52.166;5.004;2023-04-28T00:45:56;11.00;;;10.10;;
71383;SDS011;67558;52.166;5.004;2023-04-28T00:48:22;11.93;;;11.05;;
71383;SDS011;67558;52.166;5.004;2023-04-28T00:50:48;11.70;;;11.00;;
71383;SDS011;67558;52.166;5.004;2023-04-28T00:53:16;12.13;;;11.30;;
71383;SDS011;67558;52.166;5.004;2023-04-28T00:55:42;12.00;;;11.05;;
71383;SDS011;67558;52.166;5.004;2023-04-28T00:58:10;12.40;;;11.40;;
71383;SDS011;67558;52.166;5.004;2023-04-28T01:00:36;12.65;;;11.82;;
71383;SDS011;67558;52.166;5.004;2023-04-28T01:03:02;7.63;;;6.57;;
71383;SDS011;67558;52.166;5.004;2023-04-28T01:05:29;8.40;;;7.60;;
71383;SDS011;67558;52.166;5.004;2023-04-28T01:07:56;13.07;;;12.20;;
71383;SDS011;67558;52.166;5.004;2023-04-28T01:10:22;12.77;;;11.40;;
71383;SDS011;67558;52.166;5.004;2023-04-28T01:12:48;12.15;;;11.43;;
71383;SDS011;67558;52.166;5.004;2023-04-28T01:15:15;13.27;;;12.45;;
71383;SDS011;67558;52.166;5.004;2023-04-28T01:17:44;12.02;;;11.02;;
71383;SDS011;67558;52.166;5.004;2023-04-28T01:20:11;12.18;;;11.40;;
71383;SDS011;67558;52.166;5.004;2023-04-28T01:22:36;12.35;;;11.45;;
71383;SDS011;67558;52.166;5.004;2023-04-28T01:25:02;11.38;;;10.68;;
71383;SDS011;67558;52.166;5.004;2023-04-28T01:27:28;12.77;;;11.95;;
71383;SDS011;67558;52.166;5.004;2023-04-28T01:29:54;11.93;;;11.10;;
71383;SDS011;67558;52.166;5.004;2023-04-28T01:32:21;11.70;;;10.65;;
71383;SDS011;67558;52.166;5.004;2023-04-28T01:34:47;13.98;;;13.02;;
71383;SDS011;67558;52.166;5.004;2023-04-28T01:37:13;11.60;;;10.90;;
71383;SDS011;67558;52.166;5.004;2023-04-28T01:39:39;12.38;;;11.48;;
71383;SDS011;67558;52.166;5.004;2023-04-28T01:42:05;13.38;;;12.48;;
71383;SDS011;67558;52.166;5.004;2023-04-28T01:44:30;11.60;;;10.77;;
71383;SDS011;67558;52.166;5.004;2023-04-28T01:46:56;12.65;;;12.05;;
71383;SDS011;67558;52.166;5.004;2023-04-28T01:49:22;11.95;;;11.25;;
71383;SDS011;67558;52.166;5.004;2023-04-28T01:51:50;13.65;;;12.75;;
71383;SDS011;67558;52.166;5.004;2023-04-28T01:54:16;11.70;;;10.98;;
71383;SDS011;67558;52.166;5.004;2023-04-28T01:56:42;13.15;;;12.35;;
71383;SDS011;67558;52.166;5.004;2023-04-28T01:59:08;10.88;;;10.15;;
71383;SDS011;67558;52.166;5.004;2023-04-28T02:01:33;10.77;;;9.98;;
71383;SDS011;67558;52.166;5.004;2023-04-28T02:03:59;12.70;;;11.98;;
71383;SDS011;67558;52.166;5.004;2023-04-28T02:06:25;12.15;;;11.20;;
71383;SDS011;67558;52.166;5.004;2023-04-28T02:08:52;12.88;;;11.95;;
71383;SDS011;67558;52.166;5.004;2023-04-28T02:11:18;8.18;;;7.47;;
71383;SDS011;67558;52.166;5.004;2023-04-28T02:13:44;11.93;;;11.05;;
71383;SDS011;67558;52.166;5.004;2023-04-28T02:16:09;12.43;;;11.65;;
71383;SDS011;67558;52.166;5.004;2023-04-28T02:18:35;10.93;;;10.32;;
71383;SDS011;67558;52.166;5.004;2023-04-28T02:21:11;11.18;;;10.48;;
71383;SDS011;67558;52.166;5.004;2023-04-28T02:23:38;12.05;;;11.25;;
71383;SDS011;67558;52.166;5.004;2023-04-28T02:26:04;12.82;;;12.05;;
71383;SDS011;67558;52.166;5.004;2023-04-28T02:28:30;12.50;;;11.68;;
71383;SDS011;67558;52.166;5.004;2023-04-28T02:31:07;10.50;;;9.80;;
71383;SDS011;67558;52.166;5.004;2023-04-28T02:33:35;11.75;;;10.93;;
71383;SDS011;67558;52.166;5.004;2023-04-28T02:36:02;12.07;;;11.02;;
71383;SDS011;67558;52.166;5.004;2023-04-28T02:38:29;12.15;;;11.40;;
71383;SDS011;67558;52.166;5.004;2023-04-28T02:41:06;12.60;;;11.80;;
71383;SDS011;67558;52.166;5.004;2023-04-28T02:43:36;13.25;;;12.55;;
71383;SDS011;67558;52.166;5.004;2023-04-28T02:46:03;10.70;;;10.10;;
71383;SDS011;67558;52.166;5.004;2023-04-28T02:48:30;12.60;;;11.85;;
71383;SDS011;67558;52.166;5.004;2023-04-28T02:51:00;11.07;;;10.13;;
71383;SDS011;67558;52.166;5.004;2023-04-28T02:53:26;11.80;;;11.05;;
71383;SDS011;67558;52.166;5.004;2023-04-28T02:55:52;11.15;;;10.43;;
71383;SDS011;67558;52.166;5.004;2023-04-28T02:58:19;11.25;;;10.55;;
71383;SDS011;67558;52.166;5.004;2023-04-28T03:00:45;10.90;;;10.10;;
71383;SDS011;67558;52.166;5.004;2023-04-28T03:03:11;11.43;;;10.77;;
71383;SDS011;67558;52.166;5.004;2023-04-28T03:05:37;7.85;;;7.32;;
71383;SDS011;67558;52.166;5.004;2023-04-28T03:08:03;6.82;;;6.18;;
71383;SDS011;67558;52.166;5.004;2023-04-28T03:10:30;11.15;;;10.52;;
71383;SDS011;67558;52.166;5.004;2023-04-28T03:12:56;10.80;;;10.20;;
71383;SDS011;67558;52.166;5.004;2023-04-28T03:15:22;10.40;;;9.57;;
71383;SDS011;67558;52.166;5.004;2023-04-28T03:17:48;10.70;;;10.00;;
71383;SDS011;67558;52.166;5.004;2023-04-28T03:20:15;11.55;;;10.68;;
71383;SDS011;67558;52.166;5.004;2023-04-28T03:22:41;10.48;;;9.88;;
71383;SDS011;67558;52.166;5.004;2023-04-28T03:25:07;12.18;;;11.48;;
71383;SDS011;67558;52.166;5.004;2023-04-28T03:27:33;8.95;;;8.23;;
71383;SDS011;67558;52.166;5.004;2023-04-28T03:29:59;9.85;;;9.30;;
71383;SDS011;67558;52.166;5.004;2023-04-28T03:32:25;14.57;;;13.68;;
71383;SDS011;67558;52.166;5.004;2023-04-28T03:34:51;13.05;;;12.18;;
71383;SDS011;67558;52.166;5.004;2023-04-28T03:37:17;11.60;;;10.80;;
71383;SDS011;67558;52.166;5.004;2023-04-28T03:39:44;10.77;;;10.07;;
71383;SDS011;67558;52.166;5.004;2023-04-28T03:42:10;11.32;;;10.43;;
71383;SDS011;67558;52.166;5.004;2023-04-28T03:44:36;10.68;;;9.88;;
71383;SDS011;67558;52.166;5.004;2023-04-28T03:47:01;10.38;;;9.60;;
71383;SDS011;67558;52.166;5.004;2023-04-28T03:49:27;11.90;;;11.23;;
71383;SDS011;67558;52.166;5.004;2023-04-28T03:51:53;12.50;;;11.70;;
71383;SDS011;67558;52.166;5.004;2023-04-28T03:54:19;11.05;;;10.40;;
71383;SDS011;67558;52.166;5.004;2023-04-28T03:56:45;9.93;;;9.30;;
71383;SDS011;67558;52.166;5.004;2023-04-28T03:59:12;10.80;;;10.30;;
71383;SDS011;67558;52.166;5.004;2023-04-28T04:01:38;12.85;;;12.10;;
71383;SDS011;67558;52.166;5.004;2023-04-28T04:04:03;10.90;;;10.30;;
71383;SDS011;67558;52.166;5.004;2023-04-28T04:06:29;10.48;;;9.77;;
71383;SDS011;67558;52.166;5.004;2023-04-28T04:08:56;10.35;;;9.70;;
71383;SDS011;67558;52.166;5.004;2023-04-28T04:11:23;12.15;;;11.38;;
71383;SDS011;67558;52.166;5.004;2023-04-28T04:13:49;10.73;;;10.13;;
71383;SDS011;67558;52.166;5.004;2023-04-28T04:16:15;10.57;;;9.98;;
71383;SDS011;67558;52.166;5.004;2023-04-28T04:18:41;8.10;;;7.32;;
71383;SDS011;67558;52.166;5.004;2023-04-28T04:21:06;11.20;;;10.43;;
71383;SDS011;67558;52.166;5.004;2023-04-28T04:23:32;12.18;;;11.30;;
71383;SDS011;67558;52.166;5.004;2023-04-28T04:25:58;10.48;;;9.88;;
71383;SDS011;67558;52.166;5.004;2023-04-28T04:28:26;12.25;;;11.45;;
71383;SDS011;67558;52.166;5.004;2023-04-28T04:30:51;12.73;;;11.77;;
71383;SDS011;67558;52.166;5.004;2023-04-28T04:33:17;11.55;;;10.88;;
71383;SDS011;67558;52.166;5.004;2023-04-28T04:35:43;12.15;;;11.45;;
71383;SDS011;67558;52.166;5.004;2023-04-28T04:38:09;12.38;;;11.40;;
71383;SDS011;67558;52.166;5.004;2023-04-28T04:40:35;13.70;;;12.82;;
71383;SDS011;67558;52.166;5.004;2023-04-28T04:43:01;8.05;;;7.28;;
71383;SDS011;67558;52.166;5.004;2023-04-28T04:45:27;8.65;;;7.95;;
71383;SDS011;67558;52.166;5.004;2023-04-28T04:47:53;12.05;;;11.13;;
71383;SDS011;67558;52.166;5.004;2023-04-28T04:50:19;12.35;;;11.45;;
71383;SDS011;67558;52.166;5.004;2023-04-28T04:52:45;12.63;;;11.88;;
71383;SDS011;67558;52.166;5.004;2023-04-28T04:55:13;11.75;;;11.05;;
71383;SDS011;67558;52.166;5.004;2023-04-28T04:57:39;12.15;;;11.20;;
71383;SDS011;67558;52.166;5.004;2023-04-28T05:00:05;13.30;;;12.45;;
71383;SDS011;67558;52.166;5.004;2023-04-28T05:02:31;12.48;;;11.48;;
71383;SDS011;67558;52.166;5.004;2023-04-28T05:04:57;12.13;;;11.38;;
71383;SDS011;67558;52.166;5.004;2023-04-28T05:07:24;11.82;;;10.90;;
71383;SDS011;67558;52.166;5.004;2023-04-28T05:09:50;12.93;;;12.13;;
71383;SDS011;67558;52.166;5.004;2023-04-28T05:12:16;13.05;;;12.05;;
71383;SDS011;67558;52.166;5.004;2023-04-28T05:14:42;12.38;;;11.57;;
71383;SDS011;67558;52.166;5.004;2023-04-28T05:17:08;11.38;;;10.77;;
71383;SDS011;67558;52.166;5.004;2023-04-28T05:19:34;14.07;;;12.55;;
71383;SDS011;67558;52.166;5.004;2023-04-28T05:22:00;11.98;;;11.07;;
71383;SDS011;67558;52.166;5.004;2023-04-28T05:24:26;14.23;;;13.23;;
71383;SDS011;67558;52.166;5.004;2023-04-28T05:26:52;13.68;;;12.77;;
71383;SDS011;67558;52.166;5.004;2023-04-28T05:29:19;12.18;;;11.18;;
71383;SDS011;67558;52.166;5.004;2023-04-28T05:31:46;11.57;;;10.73;;
71383;SDS011;67558;52.166;5.004;2023-04-28T05:34:11;13.25;;;12.43;;
71383;SDS011;67558;52.166;5.004;2023-04-28T05:36:37;12.48;;;11.60;;
71383;SDS011;67558;52.166;5.004;2023-04-28T05:39:03;13.20;;;12.20;;
71383;SDS011;67558;52.166;5.004;2023-04-28T05:41:28;12.68;;;11.68;;
71383;SDS011;67558;52.166;5.004;2023-04-28T05:43:54;12.73;;;11.85;;
71383;SDS011;67558;52.166;5.004;2023-04-28T05:46:19;13.18;;;12.07;;
71383;SDS011;67558;52.166;5.004;2023-04-28T05:48:45;13.73;;;12.60;;
71383;SDS011;67558;52.166;5.004;2023-04-28T05:51:11;13.23;;;12.10;;
71383;SDS011;67558;52.166;5.004;2023-04-28T05:53:36;12.23;;;11.35;;
71383;SDS011;67558;52.166;5.004;2023-04-28T05:56:01;8.88;;;7.78;;
71383;SDS011;67558;52.166;5.004;2023-04-28T05:58:27;16.40;;;14.75;;
71383;SDS011;67558;52.166;5.004;2023-04-28T06:00:53;13.80;;;12.80;;
71383;SDS011;67558;52.166;5.004;2023-04-28T06:03:19;13.70;;;12.60;;
71383;SDS011;67558;52.166;5.004;2023-04-28T06:05:44;9.75;;;8.95;;
71383;SDS011;67558;52.166;5.004;2023-04-28T06:08:09;13.10;;;12.30;;
71383;SDS011;67558;52.166;5.004;2023-04-28T06:10:35;15.18;;;14.00;;
71383;SDS011;67558;52.166;5.004;2023-04-28T06:13:00;17.20;;;16.15;;
71383;SDS011;67558;52.166;5.004;2023-04-28T06:15:28;13.70;;;12.60;;
71383;SDS011;67558;52.166;5.004;2023-04-28T06:17:54;15.25;;;13.95;;
71383;SDS011;67558;52.166;5.004;2023-04-28T06:20:20;14.40;;;13.23;;
71383;SDS011;67558;52.166;5.004;2023-04-28T06:22:45;15.32;;;14.02;;
71383;SDS011;67558;52.166;5.004;2023-04-28T06:25:10;17.08;;;15.85;;
71383;SDS011;67558;52.166;5.004;2023-04-28T06:27:36;16.85;;;15.02;;
71383;SDS011;67558;52.166;5.004;2023-04-28T06:30:01;14.90;;;13.70;;
71383;SDS011;67558;52.166;5.004;2023-04-28T06:32:26;16.50;;;15.02;;
71383;SDS011;67558;52.166;5.004;2023-04-28T06:34:52;12.15;;;10.15;;
71383;SDS011;67558;52.166;5.004;2023-04-28T06:37:17;16.23;;;14.57;;
71383;SDS011;67558;52.166;5.004;2023-04-28T06:39:43;13.38;;;11.93;;
71383;SDS011;67558;52.166;5.004;2023-04-28T06:42:08;18.27;;;16.60;;
71383;SDS011;67558;52.166;5.004;2023-04-28T06:44:34;13.25;;;9.90;;
71383;SDS011;67558;52.166;5.004;2023-04-28T06:46:59;17.15;;;15.90;;
71383;SDS011;67558;52.166;5.004;2023-04-28T06:49:24;17.15;;;15.48;;
71383;SDS011;67558;52.166;5.004;2023-04-28T06:51:50;17.73;;;16.23;;
71383;SDS011;67558;52.166;5.004;2023-04-28T06:54:15;19.23;;;17.67;;
71383;SDS011;67558;52.166;5.004;2023-04-28T06:56:40;15.90;;;14.50;;
71383;SDS011;67558;52.166;5.004;2023-04-28T06:59:06;13.13;;;11.50;;
71383;SDS011;67558;52.166;5.004;2023-04-28T07:01:32;16.80;;;15.45;;
71383;SDS011;67558;52.166;5.004;2023-04-28T07:03:57;16.98;;;15.50;;
71383;SDS011;67558;52.166;5.004;2023-04-28T07:06:23;18.52;;;16.95;;
71383;SDS011;67558;52.166;5.004;2023-04-28T07:08:48;18.15;;;16.48;;
71383;SDS011;67558;52.166;5.004;2023-04-28T07:11:14;17.35;;;15.93;;
71383;SDS011;67558;52.166;5.004;2023-04-28T07:13:40;17.27;;;15.73;;
71383;SDS011;67558;52.166;5.004;2023-04-28T07:16:05;17.00;;;15.20;;
71383;SDS011;67558;52.166;5.004;2023-04-28T07:18:32;18.80;;;17.27;;
71383;SDS011;67558;52.166;5.004;2023-04-28T07:20:57;17.15;;;15.63;;
71383;SDS011;67558;52.166;5.004;2023-04-28T07:23:22;20.65;;;19.13;;
71383;SDS011;67558;52.166;5.004;2023-04-28T07:25:48;21.08;;;18.88;;
71383;SDS011;67558;52.166;5.004;2023-04-28T07:28:13;21.23;;;19.60;;
71383;SDS011;67558;52.166;5.004;2023-04-28T07:30:38;18.63;;;17.10;;
71383;SDS011;67558;52.166;5.004;2023-04-28T07:33:04;19.48;;;17.88;;
71383;SDS011;67558;52.166;5.004;2023-04-28T07:35:30;19.80;;;17.88;;
71383;SDS011;67558;52.166;5.004;2023-04-28T07:37:55;18.25;;;16.65;;
71383;SDS011;67558;52.166;5.004;2023-04-28T07:40:21;21.90;;;20.17;;
71383;SDS011;67558;52.166;5.004;2023-04-28T07:42:47;19.35;;;17.70;;
71383;SDS011;67558;52.166;5.004;2023-04-28T07:45:13;20.33;;;18.52;;
71383;SDS011;67558;52.166;5.004;2023-04-28T07:47:40;18.88;;;17.10;;
71383;SDS011;67558;52.166;5.004;2023-04-28T07:50:05;20.33;;;18.63;;
71383;SDS011;67558;52.166;5.004;2023-04-28T07:52:32;18.02;;;16.55;;
71383;SDS011;67558;52.166;5.004;2023-04-28T07:54:58;20.02;;;18.33;;
71383;SDS011;67558;52.166;5.004;2023-04-28T07:57:24;21.02;;;19.00;;
71383;SDS011;67558;52.166;5.004;2023-04-28T07:59:50;21.63;;;19.73;;
71383;SDS011;67558;52.166;5.004;2023-04-28T08:02:16;21.40;;;19.65;;
71383;SDS011;67558;52.166;5.004;2023-04-28T08:04:43;19.88;;;18.25;;
71383;SDS011;67558;52.166;5.004;2023-04-28T08:07:08;21.17;;;19.27;;
71383;SDS011;67558;52.166;5.004;2023-04-28T08:09:34;21.63;;;19.88;;
71383;SDS011;67558;52.166;5.004;2023-04-28T08:12:00;21.50;;;19.33;;
71383;SDS011;67558;52.166;5.004;2023-04-28T08:14:26;21.95;;;19.48;;
71383;SDS011;67558;52.166;5.004;2023-04-28T08:16:52;20.77;;;19.05;;
71383;SDS011;67558;52.166;5.004;2023-04-28T08:19:18;22.90;;;20.80;;
71383;SDS011;67558;52.166;5.004;2023-04-28T08:21:44;21.40;;;19.48;;
71383;SDS011;67558;52.166;5.004;2023-04-28T08:24:10;24.70;;;22.23;;
71383;SDS011;67558;52.166;5.004;2023-04-28T08:26:35;22.83;;;20.75;;
71383;SDS011;67558;52.166;5.004;2023-04-28T08:29:02;24.23;;;22.15;;
71383;SDS011;67558;52.166;5.004;2023-04-28T08:31:28;22.13;;;20.13;;
71383;SDS011;67558;52.166;5.004;2023-04-28T08:33:53;23.00;;;21.00;;
71383;SDS011;67558;52.166;5.004;2023-04-28T08:36:18;23.60;;;21.67;;
71383;SDS011;67558;52.166;5.004;2023-04-28T08:38:45;23.90;;;21.92;;
71383;SDS011;67558;52.166;5.004;2023-04-28T08:41:11;17.45;;;15.73;;
71383;SDS011;67558;52.166;5.004;2023-04-28T08:43:39;24.10;;;22.13;;
71383;SDS011;67558;52.166;5.004;2023-04-28T08:46:07;22.65;;;20.85;;
71383;SDS011;67558;52.166;5.004;2023-04-28T08:48:42;24.08;;;21.85;;
71383;SDS011;67558;52.166;5.004;2023-04-28T08:51:14;23.13;;;21.17;;
71383;SDS011;67558;52.166;5.004;2023-04-28T08:53:43;23.35;;;21.33;;
71383;SDS011;67558;52.166;5.004;2023-04-28T08:56:18;24.80;;;22.75;;
71383;SDS011;67558;52.166;5.004;2023-04-28T08:58:46;23.77;;;21.48;;
71383;SDS011;67558;52.166;5.004;2023-04-28T09:01:13;20.38;;;18.00;;
71383;SDS011;67558;52.166;5.004;2023-04-28T09:03:38;25.48;;;23.13;;
71383;SDS011;67558;52.166;5.004;2023-04-28T09:06:04;25.15;;;22.95;;
71383;SDS011;67558;52.166;5.004;2023-04-28T09:08:29;23.75;;;21.65;;
71383;SDS011;67558;52.166;5.004;2023-04-28T09:11:07;24.60;;;22.17;;
71383;SDS011;67558;52.166;5.004;2023-04-28T09:13:34;24.38;;;22.20;;
71383;SDS011;67558;52.166;5.004;2023-04-28T09:16:00;24.83;;;22.58;;
71383;SDS011;67558;52.166;5.004;2023-04-28T09:18:27;25.92;;;23.48;;
71383;SDS011;67558;52.166;5.004;2023-04-28T09:21:01;27.23;;;24.77;;
71383;SDS011;67558;52.166;5.004;2023-04-28T09:23:31;19.80;;;18.00;;
71383;SDS011;67558;52.166;5.004;2023-04-28T09:28:32;26.13;;;23.90;;
71383;SDS011;67558;52.166;5.004;2023-04-28T09:30:59;24.17;;;21.88;;
71383;SDS011;67558;52.166;5.004;2023-04-28T09:33:25;25.20;;;23.35;;
71383;SDS011;67558;52.166;5.004;2023-04-28T09:35:51;22.77;;;20.80;;
71383;SDS011;67558;52.166;5.004;2023-04-28T09:38:17;24.80;;;22.75;;
71383;SDS011;67558;52.166;5.004;2023-04-28T09:43:21;26.15;;;24.05;;
71383;SDS011;67558;52.166;5.004;2023-04-28T09:45:51;26.00;;;23.90;;
71383;SDS011;67558;52.166;5.004;2023-04-28T09:48:25;27.48;;;25.20;;
71383;SDS011;67558;52.166;5.004;2023-04-28T09:50:58;25.33;;;23.25;;
71383;SDS011;67558;52.166;5.004;2023-04-28T09:53:24;23.83;;;21.83;;
71383;SDS011;67558;52.166;5.004;2023-04-28T09:55:51;25.70;;;23.80;;
71383;SDS011;67558;52.166;5.004;2023-04-28T09:58:18;28.17;;;25.85;;
71383;SDS011;67558;52.166;5.004;2023-04-28T10:00:45;26.02;;;23.73;;
71383;SDS011;67558;52.166;5.004;2023-04-28T10:03:14;18.38;;;15.65;;
71383;SDS011;67558;52.166;5.004;2023-04-28T10:05:41;25.52;;;23.42;;
71383;SDS011;67558;52.166;5.004;2023-04-28T10:08:06;23.88;;;21.92;;
71383;SDS011;67558;52.166;5.004;2023-04-28T10:10:31;27.60;;;25.45;;
71383;SDS011;67558;52.166;5.004;2023-04-28T10:12:57;24.02;;;22.25;;
71383;SDS011;67558;52.166;5.004;2023-04-28T10:15:24;25.55;;;23.65;;
71383;SDS011;67558;52.166;5.004;2023-04-28T10:17:50;18.65;;;17.05;;
71383;SDS011;67558;52.166;5.004;2023-04-28T10:20:16;23.63;;;21.92;;
71383;SDS011;67558;52.166;5.004;2023-04-28T10:25:27;25.33;;;23.38;;
71383;SDS011;67558;52.166;5.004;2023-04-28T10:27:55;24.55;;;22.75;;
71383;SDS011;67558;52.166;5.004;2023-04-28T10:30:23;25.25;;;23.25;;
71383;SDS011;67558;52.166;5.004;2023-04-28T10:38:12;22.77;;;20.80;;
71383;SDS011;67558;52.166;5.004;2023-04-28T10:40:39;25.13;;;23.38;;
71383;SDS011;67558;52.166;5.004;2023-04-28T10:43:12;27.58;;;25.15;;
71383;SDS011;67558;52.166;5.004;2023-04-28T10:48:16;23.52;;;21.63;;
71383;SDS011;67558;52.166;5.004;2023-04-28T10:51:15;22.67;;;20.85;;
71383;SDS011;67558;52.166;5.004;2023-04-28T10:56:13;26.60;;;24.27;;
71383;SDS011;67558;52.166;5.004;2023-04-28T10:58:43;23.80;;;21.80;;
71383;SDS011;67558;52.166;5.004;2023-04-28T11:06:27;22.30;;;20.63;;
71383;SDS011;67558;52.166;5.004;2023-04-28T11:08:56;19.58;;;18.10;;
71383;SDS011;67558;52.166;5.004;2023-04-28T11:11:26;22.45;;;20.77;;
71383;SDS011;67558;52.166;5.004;2023-04-28T11:13:53;20.88;;;19.55;;
71383;SDS011;67558;52.166;5.004;2023-04-28T11:16:55;21.77;;;20.42;;
71383;SDS011;67558;52.166;5.004;2023-04-28T11:19:26;21.70;;;20.33;;
71383;SDS011;67558;52.166;5.004;2023-04-28T11:21:53;20.42;;;18.95;;
71383;SDS011;67558;52.166;5.004;2023-04-28T11:24:20;20.48;;;19.38;;
71383;SDS011;67558;52.166;5.004;2023-04-28T11:26:47;19.67;;;18.48;;
71383;SDS011;67558;52.166;5.004;2023-04-28T11:29:13;19.83;;;18.75;;
71383;SDS011;67558;52.166;5.004;2023-04-28T11:31:39;20.65;;;19.65;;
71383;SDS011;67558;52.166;5.004;2023-04-28T11:34:10;17.85;;;17.00;;
71383;SDS011;67558;52.166;5.004;2023-04-28T11:36:39;19.65;;;18.75;;
71383;SDS011;67558;52.166;5.004;2023-04-28T11:39:06;20.20;;;19.30;;
71383;SDS011;67558;52.166;5.004;2023-04-28T11:41:36;18.90;;;18.02;;
71383;SDS011;67558;52.166;5.004;2023-04-28T11:44:09;17.90;;;17.15;;
71383;SDS011;67558;52.166;5.004;2023-04-28T11:46:35;12.07;;;11.48;;
71383;SDS011;67558;52.166;5.004;2023-04-28T11:49:15;19.90;;;18.90;;
71383;SDS011;67558;52.166;5.004;2023-04-28T11:51:41;21.90;;;20.90;;
71383;SDS011;67558;52.166;5.004;2023-04-28T11:54:09;20.75;;;19.77;;
71383;SDS011;67558;52.166;5.004;2023-04-28T11:56:40;21.50;;;20.60;;
71383;SDS011;67558;52.166;5.004;2023-04-28T11:59:07;18.35;;;17.45;;
71383;SDS011;67558;52.166;5.004;2023-04-28T12:01:48;16.73;;;15.82;;
71383;SDS011;67558;52.166;5.004;2023-04-28T12:04:35;19.65;;;18.67;;
71383;SDS011;67558;52.166;5.004;2023-04-28T12:09:34;14.18;;;13.25;;
71383;SDS011;67558;52.166;5.004;2023-04-28T12:12:02;19.15;;;18.02;;
71383;SDS011;67558;52.166;5.004;2023-04-28T12:14:29;19.05;;;18.25;;
71383;SDS011;67558;52.166;5.004;2023-04-28T12:17:04;18.90;;;17.98;;
71383;SDS011;67558;52.166;5.004;2023-04-28T12:19:31;20.33;;;19.52;;
71383;SDS011;67558;52.166;5.004;2023-04-28T12:22:08;18.65;;;17.70;;
71383;SDS011;67558;52.166;5.004;2023-04-28T12:24:33;19.00;;;18.23;;
71383;SDS011;67558;52.166;5.004;2023-04-28T12:27:16;21.88;;;20.98;;
71383;SDS011;67558;52.166;5.004;2023-04-28T12:29:45;17.65;;;16.95;;
71383;SDS011;67558;52.166;5.004;2023-04-28T12:32:11;20.02;;;19.13;;
71383;SDS011;67558;52.166;5.004;2023-04-28T12:34:38;20.63;;;19.92;;
71383;SDS011;67558;52.166;5.004;2023-04-28T12:37:04;21.33;;;20.63;;
71383;SDS011;67558;52.166;5.004;2023-04-28T12:39:31;18.85;;;18.23;;
71383;SDS011;67558;52.166;5.004;2023-04-28T12:41:58;19.98;;;19.30;;
71383;SDS011;67558;52.166;5.004;2023-04-28T12:44:27;18.80;;;18.10;;
71383;SDS011;67558;52.166;5.004;2023-04-28T12:46:59;19.65;;;18.95;;
71383;SDS011;67558;52.166;5.004;2023-04-28T12:49:25;18.52;;;17.92;;
71383;SDS011;67558;52.166;5.004;2023-04-28T12:51:50;19.17;;;18.58;;
71383;SDS011;67558;52.166;5.004;2023-04-28T12:54:17;20.55;;;19.95;;
71383;SDS011;67558;52.166;5.004;2023-04-28T12:56:43;23.35;;;22.35;;
71383;SDS011;67558;52.166;5.004;2023-04-28T12:59:09;18.15;;;17.40;;
71383;SDS011;67558;52.166;5.004;2023-04-28T13:01:35;20.23;;;19.58;;
71383;SDS011;67558;52.166;5.004;2023-04-28T13:04:00;20.40;;;19.80;;
71383;SDS011;67558;52.166;5.004;2023-04-28T13:06:26;18.20;;;17.50;;
71383;SDS011;67558;52.166;5.004;2023-04-28T13:08:52;20.55;;;19.95;;
71383;SDS011;67558;52.166;5.004;2023-04-28T13:11:17;19.70;;;19.10;;
71383;SDS011;67558;52.166;5.004;2023-04-28T13:13:43;17.42;;;16.83;;
71383;SDS011;67558;52.166;5.004;2023-04-28T13:16:09;18.67;;;17.98;;
71383;SDS011;67558;52.166;5.004;2023-04-28T13:18:35;19.52;;;18.83;;
71383;SDS011;67558;52.166;5.004;2023-04-28T13:21:00;21.25;;;20.55;;
71383;SDS011;67558;52.166;5.004;2023-04-28T13:23:26;18.95;;;18.35;;
71383;SDS011;67558;52.166;5.004;2023-04-28T13:25:51;18.25;;;17.65;;
71383;SDS011;67558;52.166;5.004;2023-04-28T13:28:16;18.05;;;17.35;;
71383;SDS011;67558;52.166;5.004;2023-04-28T13:30:42;11.52;;;11.02;;
71383;SDS011;67558;52.166;5.004;2023-04-28T13:33:07;18.80;;;18.10;;
71383;SDS011;67558;52.166;5.004;2023-04-28T13:35:32;19.83;;;19.00;;
71383;SDS011;67558;52.166;5.004;2023-04-28T13:37:58;19.00;;;18.25;;
71383;SDS011;67558;52.166;5.004;2023-04-28T13:40:26;20.30;;;19.42;;
71383;SDS011;67558;52.166;5.004;2023-04-28T13:42:52;20.45;;;19.55;;
71383;SDS011;67558;52.166;5.004;2023-04-28T13:45:18;19.58;;;18.70;;
71383;SDS011;67558;52.166;5.004;2023-04-28T13:47:43;21.75;;;20.65;;
71383;SDS011;67558;52.166;5.004;2023-04-28T13:50:09;20.42;;;19.48;;
71383;SDS011;67558;52.166;5.004;2023-04-28T13:52:34;17.98;;;17.10;;
71383;SDS011;67558;52.166;5.004;2023-04-28T13:55:00;20.10;;;18.98;;
71383;SDS011;67558;52.166;5.004;2023-04-28T13:57:25;20.17;;;19.05;;
71383;SDS011;67558;52.166;5.004;2023-04-28T13:59:51;18.92;;;18.05;;
71383;SDS011;67558;52.166;5.004;2023-04-28T14:02:16;19.33;;;18.42;;
71383;SDS011;67558;52.166;5.004;2023-04-28T14:04:42;21.27;;;20.08;;
71383;SDS011;67558;52.166;5.004;2023-04-28T14:07:12;21.88;;;20.63;;
71383;SDS011;67558;52.166;5.004;2023-04-28T14:09:38;23.52;;;22.23;;
71383;SDS011;67558;52.166;5.004;2023-04-28T14:12:05;21.27;;;20.08;;
71383;SDS011;67558;52.166;5.004;2023-04-28T14:14:32;21.50;;;20.20;;
71383;SDS011;67558;52.166;5.004;2023-04-28T14:16:57;23.73;;;22.08;;
71383;SDS011;67558;52.166;5.004;2023-04-28T14:19:23;21.67;;;20.25;;
71383;SDS011;67558;52.166;5.004;2023-04-28T14:21:51;21.08;;;19.38;;
71383;SDS011;67558;52.166;5.004;2023-04-28T14:24:16;25.27;;;23.25;;
71383;SDS011;67558;52.166;5.004;2023-04-28T14:26:42;25.65;;;23.55;;
71383;SDS011;67558;52.166;5.004;2023-04-28T14:29:08;24.60;;;22.70;;
71383;SDS011;67558;52.166;5.004;2023-04-28T14:31:33;24.63;;;22.70;;
71383;SDS011;67558;52.166;5.004;2023-04-28T14:33:59;22.65;;;20.75;;
71383;SDS011;67558;52.166;5.004;2023-04-28T14:36:24;21.65;;;19.85;;
71383;SDS011;67558;52.166;5.004;2023-04-28T14:38:49;21.98;;;20.30;;
71383;SDS011;67558;52.166;5.004;2023-04-28T14:41:15;21.17;;;19.52;;
71383;SDS011;67558;52.166;5.004;2023-04-28T14:43:41;20.92;;;19.42;;
71383;SDS011;67558;52.166;5.004;2023-04-28T14:46:06;22.38;;;20.70;;
71383;SDS011;67558;52.166;5.004;2023-04-28T14:48:31;20.50;;;19.02;;